Apple Springs, TX

11:41 AM CDT on June 03, 2015 (GMT -0500)
Old Bonner | | Change Station
CLOSE
Current Station
Personal Weather Station
Location: Lufkin, TX
Elevation: 282 ft
Nearby Weather Stations
Active Advisory: Flood Warning

Elev 282 ft 31.35 °N, 94.88 °W | Updated 5 minutes ago

Clear
Clear
85.6 °F
Feels Like 90 °F
N
3.2
Wind Variable Wind from SW

Today
High -- | Low -- °F
--% Chance of Precip.
Yesterday
High -- | Low -- °F
Precip. -- in
6:15 AM 8:20 PM
Full, 99% visible
Pressure 29.96 in
Visibility 10.0 miles
Clouds Clear
Heat Index 90 °F
Dew Point 70 °F
Humidity 60%
Rainfall 0.00 in
Snow Depth Not available.
UV 9 out of 12
Pollen 4.40 out of 12
Air Quality Not available.
Flu Activity Local Activity
METAR KLFK 031553Z AUTO 14004KT 10SM CLR 28/19 A2997 RMK AO2 SLP146 T02830194

More Conditions Fewer Conditions

Pressure 29.96 in
Visibility 10.0 miles
Clouds Clear
Heat Index 90 °F
Dew Point 70 °F
Humidity 60%
Rainfall 0.00 in
Snow Depth Not available.
UV 9 out of 12
Pollen 4.40 out of 12
Air Quality Not available.
Flu Activity Local Activity
METAR KLFK 031553Z AUTO 14004KT 10SM CLR 28/19 A2997 RMK AO2 SLP146 T02830194

More Conditions Fewer Conditions

10-Day Weather Forecast

×

Almanac

Astronomy

Jun. 03, 2015 Rise Set
Actual Time
Civil Twilight
Nautical Twilight
Astronomical Twilight
Moon
Length of Visible Light
Length of Day
Tomorrow will be .
, % of the Moon is Illuminated

Today's Extremes

State Highs State Lows

Community

WunderPhotos

Upload Photos

1,826,256 photos uploaded!

WunderBlogs® & News

Nearby

Air Quality

  Air Quality AQ Index Pollutant
Not available.

Snow Depth

Station Depth Elevation

Earthquake Activity

City Distance Mag. Time & Date
Minimum magnitude displayed is 2.5.

Coastal Water Temperatures

Place Temperature

Stations

Nearby Weather Stations

Station Location Temp. Windchill Dew Point Humidity Wind Precip. Elev Updated Type
                   
Flood Warning
Statement as of 9:22 AM CDT on June 03, 2015

The Flood Warning continues for
the Trinity River near Riverside
* until further notice... or until the warning is canceled.
* At 0830 am Wednesday the stage was 137.0 feet.
* Minor flooding is occurring and is expected to continue.
* Flood stage is 134.0 feet.
* Forecast... the river is expected to continue slowly rising to near 137.5 feet
by early Saturday morning.
* At 137.0 feet... moderate lowland flooding begins as several homes in the
greenrich shores subdivision in Walker County flood and water covers Thomas
Lake Road. The lowest buildings off FM 980 northwest of Riverside flood.


Lat... Lon 3097 9584 3096 9562 3093 9528 3082 9528 3087 9562 3088 9584

                     flood observed forecast 6 am
location stage stage day time Thu Fri Sat sun

Trinity River
Riverside 134 137.0 Wed 8 am 137.2 137.4 137.5 137.5